sensor_id;sensor_type;location;lat;lon;timestamp;pressure;altitude;pressure_sealevel;temperature;humidity
38054;BME280;23859;50.672;7.164;2023-07-24T00:00:22;34538.09;;;-140.95;74.50
38054;BME280;23859;50.672;7.164;2023-07-24T00:02:48;34522.03;;;-140.95;74.42
38054;BME280;23859;50.672;7.164;2023-07-24T00:05:14;34485.88;;;-140.95;74.25
38054;BME280;23859;50.672;7.164;2023-07-24T00:07:40;34811.28;;;-140.95;74.28
38054;BME280;23859;50.672;7.164;2023-07-24T00:10:06;34520.03;;;-140.95;74.48
38054;BME280;23859;50.672;7.164;2023-07-24T00:12:33;34526.06;;;-140.95;74.18
38054;BME280;23859;50.672;7.164;2023-07-24T00:14:59;34522.03;;;-140.95;74.06
38054;BME280;23859;50.672;7.164;2023-07-24T00:17:25;34503.97;;;-140.95;74.09
38054;BME280;23859;50.672;7.164;2023-07-24T00:19:51;34497.94;;;-140.95;73.56
38054;BME280;23859;50.672;7.164;2023-07-24T00:22:17;34518.00;;;-140.95;74.05
38054;BME280;23859;50.672;7.164;2023-07-24T00:24:43;34526.06;;;-140.95;73.58
38054;BME280;23859;50.672;7.164;2023-07-24T00:27:09;34501.94;;;-140.95;73.73
38054;BME280;23859;50.672;7.164;2023-07-24T00:29:35;34542.13;;;-140.95;74.05
38054;BME280;23859;50.672;7.164;2023-07-24T00:32:01;34509.97;;;-140.95;74.25
38054;BME280;23859;50.672;7.164;2023-07-24T00:34:27;34522.03;;;-140.95;74.34
38054;BME280;23859;50.672;7.164;2023-07-24T00:36:53;34546.13;;;-140.95;74.84
38054;BME280;23859;50.672;7.164;2023-07-24T00:39:19;34512.00;;;-140.95;74.93
38054;BME280;23859;50.672;7.164;2023-07-24T00:41:45;34566.22;;;-140.95;75.12
38054;BME280;23859;50.672;7.164;2023-07-24T00:44:11;34520.03;;;-140.95;74.84
38054;BME280;23859;50.672;7.164;2023-07-24T00:46:38;34542.13;;;-140.95;75.27
38054;BME280;23859;50.672;7.164;2023-07-24T00:49:05;34493.91;;;-140.95;75.25
38054;BME280;23859;50.672;7.164;2023-07-24T00:51:31;34530.06;;;-140.95;74.77
38054;BME280;23859;50.672;7.164;2023-07-24T00:54:01;34497.94;;;-140.95;74.28
38054;BME280;23859;50.672;7.164;2023-07-24T00:56:28;34439.69;;;-140.95;74.07
38054;BME280;23859;50.672;7.164;2023-07-24T00:58:55;34485.88;;;-140.95;74.27
38054;BME280;23859;50.672;7.164;2023-07-24T01:01:22;34475.84;;;-140.95;74.31
38054;BME280;23859;50.672;7.164;2023-07-24T01:03:48;34512.00;;;-140.95;73.95
38054;BME280;23859;50.672;7.164;2023-07-24T01:06:14;34489.91;;;-140.95;73.83
38054;BME280;23859;50.672;7.164;2023-07-24T01:08:41;34477.84;;;-140.95;74.11
38054;BME280;23859;50.672;7.164;2023-07-24T01:11:19;34481.88;;;-140.95;73.97
38054;BME280;23859;50.672;7.164;2023-07-24T01:13:56;34453.75;;;-140.95;73.30
38054;BME280;23859;50.672;7.164;2023-07-24T01:16:29;34441.69;;;-140.95;73.26
38054;BME280;23859;50.672;7.164;2023-07-24T01:18:59;34459.78;;;-140.95;72.85
38054;BME280;23859;50.672;7.164;2023-07-24T01:21:33;34467.81;;;-140.95;73.01
38054;BME280;23859;50.672;7.164;2023-07-24T01:24:20;34457.75;;;-140.95;72.94
38054;BME280;23859;50.672;7.164;2023-07-24T01:26:50;34491.91;;;-140.95;73.20
38054;BME280;23859;50.672;7.164;2023-07-24T01:29:16;34461.78;;;-140.95;72.86
38054;BME280;23859;50.672;7.164;2023-07-24T01:31:42;34473.81;;;-140.95;72.89
38054;BME280;23859;50.672;7.164;2023-07-24T01:34:08;34443.69;;;-140.95;72.24
38054;BME280;23859;50.672;7.164;2023-07-24T01:36:34;34459.78;;;-140.95;72.57
38054;BME280;23859;50.672;7.164;2023-07-24T01:39:01;34473.81;;;-140.95;72.83
38054;BME280;23859;50.672;7.164;2023-07-24T01:41:27;34441.69;;;-140.95;72.90
38054;BME280;23859;50.672;7.164;2023-07-24T01:43:53;34469.81;;;-140.95;72.72
38054;BME280;23859;50.672;7.164;2023-07-24T01:46:19;34445.72;;;-140.95;72.51
38054;BME280;23859;50.672;7.164;2023-07-24T01:48:45;34453.75;;;-140.95;72.40
38054;BME280;23859;50.672;7.164;2023-07-24T01:51:12;34491.91;;;-140.95;73.13
38054;BME280;23859;50.672;7.164;2023-07-24T01:53:38;34491.91;;;-140.95;73.39
38054;BME280;23859;50.672;7.164;2023-07-24T01:56:04;34520.03;;;-140.95;74.20
38054;BME280;23859;50.672;7.164;2023-07-24T01:58:30;34540.09;;;-140.95;75.08
38054;BME280;23859;50.672;7.164;2023-07-24T02:00:56;34546.13;;;-140.95;75.89
38054;BME280;23859;50.672;7.164;2023-07-24T02:03:22;34556.19;;;-140.95;76.30
38054;BME280;23859;50.672;7.164;2023-07-24T02:05:51;34568.22;;;-140.95;76.30
38054;BME280;23859;50.672;7.164;2023-07-24T02:08:17;34570.25;;;-140.95;76.78
38054;BME280;23859;50.672;7.164;2023-07-24T02:10:43;34558.19;;;-140.95;77.39
38054;BME280;23859;50.672;7.164;2023-07-24T02:13:09;34582.28;;;-140.95;78.05
38054;BME280;23859;50.672;7.164;2023-07-24T02:15:36;34618.44;;;-140.95;78.29
38054;BME280;23859;50.672;7.164;2023-07-24T02:18:03;34622.47;;;-140.95;78.66
38054;BME280;23859;50.672;7.164;2023-07-24T02:20:29;34646.56;;;-140.95;78.98
38054;BME280;23859;50.672;7.164;2023-07-24T02:22:55;34634.50;;;-140.95;79.47
38054;BME280;23859;50.672;7.164;2023-07-24T02:25:21;34628.47;;;-140.95;78.86
38054;BME280;23859;50.672;7.164;2023-07-24T02:27:47;34626.47;;;-140.95;78.90
38054;BME280;23859;50.672;7.164;2023-07-24T02:30:13;34674.69;;;-140.95;79.34
38054;BME280;23859;50.672;7.164;2023-07-24T02:32:39;34650.59;;;-140.95;79.98
38054;BME280;23859;50.672;7.164;2023-07-24T02:35:06;34682.72;;;-140.95;79.57
38054;BME280;23859;50.672;7.164;2023-07-24T02:37:32;34654.59;;;-140.95;79.35
38054;BME280;23859;50.672;7.164;2023-07-24T02:39:58;34654.59;;;-140.95;79.31
38054;BME280;23859;50.672;7.164;2023-07-24T02:42:24;34662.63;;;-140.95;78.87
38054;BME280;23859;50.672;7.164;2023-07-24T02:44:50;34638.53;;;-140.95;78.42
38054;BME280;23859;50.672;7.164;2023-07-24T02:47:16;33907.47;;;-140.95;78.92
38054;BME280;23859;50.672;7.164;2023-07-24T02:49:42;34682.72;;;-140.95;79.12
38054;BME280;23859;50.672;7.164;2023-07-24T02:52:08;34618.44;;;-140.95;79.51
38054;BME280;23859;50.672;7.164;2023-07-24T02:54:34;34664.63;;;-140.95;79.50
38054;BME280;23859;50.672;7.164;2023-07-24T02:57:00;34652.59;;;-140.95;79.09
38054;BME280;23859;50.672;7.164;2023-07-24T02:59:27;34654.59;;;-140.95;78.88
38054;BME280;23859;50.672;7.164;2023-07-24T03:01:53;34678.69;;;-140.95;78.50
38054;BME280;23859;50.672;7.164;2023-07-24T03:04:19;34654.59;;;-140.95;78.68
38054;BME280;23859;50.672;7.164;2023-07-24T03:06:45;34650.59;;;-140.95;78.11
38054;BME280;23859;50.672;7.164;2023-07-24T03:09:11;34704.81;;;-140.95;77.88
38054;BME280;23859;50.672;7.164;2023-07-24T03:11:37;34646.56;;;-140.95;78.21
38054;BME280;23859;50.672;7.164;2023-07-24T03:14:03;34650.59;;;-140.95;78.60
38054;BME280;23859;50.672;7.164;2023-07-24T03:16:29;34666.66;;;-140.95;78.22
38054;BME280;23859;50.672;7.164;2023-07-24T03:18:55;34678.69;;;-140.95;77.74
38054;BME280;23859;50.672;7.164;2023-07-24T03:21:21;34702.81;;;-140.95;77.73
38054;BME280;23859;50.672;7.164;2023-07-24T03:23:48;34700.78;;;-140.95;77.22
38054;BME280;23859;50.672;7.164;2023-07-24T03:26:14;34688.75;;;-140.95;76.89
38054;BME280;23859;50.672;7.164;2023-07-24T03:28:40;34694.78;;;-140.95;78.00
38054;BME280;23859;50.672;7.164;2023-07-24T03:31:06;34712.84;;;-140.95;78.05
38054;BME280;23859;50.672;7.164;2023-07-24T03:33:32;34734.94;;;-140.95;77.43
38054;BME280;23859;50.672;7.164;2023-07-24T03:35:58;34720.88;;;-140.95;77.36
38054;BME280;23859;50.672;7.164;2023-07-24T03:38:24;34696.78;;;-140.95;76.98
38054;BME280;23859;50.672;7.164;2023-07-24T03:40:50;34702.81;;;-140.95;78.28
38054;BME280;23859;50.672;7.164;2023-07-24T03:43:16;34706.81;;;-140.95;77.77
38054;BME280;23859;50.672;7.164;2023-07-24T03:45:42;34722.88;;;-140.95;78.07
38054;BME280;23859;50.672;7.164;2023-07-24T03:48:09;34722.88;;;-140.95;78.18
38054;BME280;23859;50.672;7.164;2023-07-24T03:50:35;34710.84;;;-140.95;78.05
38054;BME280;23859;50.672;7.164;2023-07-24T03:53:01;34734.94;;;-140.95;78.56
38054;BME280;23859;50.672;7.164;2023-07-24T03:55:27;34726.91;;;-140.95;78.69
38054;BME280;23859;50.672;7.164;2023-07-24T03:57:53;34684.72;;;-140.95;77.99
38054;BME280;23859;50.672;7.164;2023-07-24T04:00:19;34963.94;;;-140.95;77.92
38054;BME280;23859;50.672;7.164;2023-07-24T04:02:46;34678.69;;;-140.95;77.62
38054;BME280;23859;50.672;7.164;2023-07-24T04:05:12;34700.78;;;-140.95;77.90
38054;BME280;23859;50.672;7.164;2023-07-24T04:07:39;34686.72;;;-140.95;77.93
38054;BME280;23859;50.672;7.164;2023-07-24T04:10:06;34718.88;;;-140.95;77.53
38054;BME280;23859;50.672;7.164;2023-07-24T04:12:32;34706.81;;;-140.95;77.50
38054;BME280;23859;50.672;7.164;2023-07-24T04:14:58;34664.63;;;-140.95;77.11
38054;BME280;23859;50.672;7.164;2023-07-24T04:17:24;34698.78;;;-140.95;77.20
38054;BME280;23859;50.672;7.164;2023-07-24T04:19:50;34670.66;;;-140.95;77.16
38054;BME280;23859;50.672;7.164;2023-07-24T04:22:16;34674.69;;;-140.95;76.90
38054;BME280;23859;50.672;7.164;2023-07-24T04:24:42;34724.91;;;-140.95;77.30
38054;BME280;23859;50.672;7.164;2023-07-24T04:27:08;34694.78;;;-140.95;78.08
38054;BME280;23859;50.672;7.164;2023-07-24T04:29:34;34706.81;;;-140.95;78.30
38054;BME280;23859;50.672;7.164;2023-07-24T04:32:00;34710.84;;;-140.95;78.84
38054;BME280;23859;50.672;7.164;2023-07-24T04:34:26;34720.88;;;-140.95;79.31
38054;BME280;23859;50.672;7.164;2023-07-24T04:36:52;34714.84;;;-140.95;78.89
38054;BME280;23859;50.672;7.164;2023-07-24T04:39:18;34694.78;;;-140.95;79.08
38054;BME280;23859;50.672;7.164;2023-07-24T04:41:44;34688.75;;;-140.95;78.88
38054;BME280;23859;50.672;7.164;2023-07-24T04:44:10;34662.63;;;-140.95;78.75
38054;BME280;23859;50.672;7.164;2023-07-24T04:46:36;34682.72;;;-140.95;78.87
38054;BME280;23859;50.672;7.164;2023-07-24T04:49:02;34692.75;;;-140.95;78.31
38054;BME280;23859;50.672;7.164;2023-07-24T04:51:28;34642.53;;;-140.95;78.32
38054;BME280;23859;50.672;7.164;2023-07-24T04:53:55;34626.47;;;-140.95;78.31
38054;BME280;23859;50.672;7.164;2023-07-24T04:56:21;34582.28;;;-140.95;77.72
38054;BME280;23859;50.672;7.164;2023-07-24T04:58:47;34626.47;;;-140.95;77.57
38054;BME280;23859;50.672;7.164;2023-07-24T05:01:13;34578.28;;;-140.95;77.53
38054;BME280;23859;50.672;7.164;2023-07-24T05:03:39;34598.34;;;-140.95;77.99
38054;BME280;23859;50.672;7.164;2023-07-24T05:06:05;34580.28;;;-140.95;78.26
38054;BME280;23859;50.672;7.164;2023-07-24T05:08:31;34578.28;;;-140.95;78.11
38054;BME280;23859;50.672;7.164;2023-07-24T05:10:57;34614.44;;;-140.95;78.36
38054;BME280;23859;50.672;7.164;2023-07-24T05:13:25;34568.22;;;-140.95;77.99
38054;BME280;23859;50.672;7.164;2023-07-24T05:15:51;34536.09;;;-140.95;77.92
38054;BME280;23859;50.672;7.164;2023-07-24T05:18:17;34538.09;;;-140.95;77.35
38054;BME280;23859;50.672;7.164;2023-07-24T05:20:46;34505.97;;;-140.95;77.28
38054;BME280;23859;50.672;7.164;2023-07-24T05:23:13;34518.00;;;-140.95;76.15
38054;BME280;23859;50.672;7.164;2023-07-24T05:25:40;34483.88;;;-140.95;76.06
38054;BME280;23859;50.672;7.164;2023-07-24T05:28:06;34546.13;;;-140.95;75.20
38054;BME280;23859;50.672;7.164;2023-07-24T05:30:33;34503.97;;;-140.95;75.17
38054;BME280;23859;50.672;7.164;2023-07-24T05:32:59;34453.75;;;-140.95;74.93
38054;BME280;23859;50.672;7.164;2023-07-24T05:35:25;34401.53;;;-140.95;74.50
38054;BME280;23859;50.672;7.164;2023-07-24T05:37:51;34409.56;;;-140.95;73.92
38054;BME280;23859;50.672;7.164;2023-07-24T05:40:17;34413.56;;;-140.95;70.53
38054;BME280;23859;50.672;7.164;2023-07-24T05:42:43;34329.22;;;-140.95;69.66
38054;BME280;23859;50.672;7.164;2023-07-24T05:45:09;34345.28;;;-140.95;69.37
38054;BME280;23859;50.672;7.164;2023-07-24T05:47:40;34264.94;;;-140.95;65.46
38054;BME280;23859;50.672;7.164;2023-07-24T05:50:06;34174.56;;;-140.95;63.51
38054;BME280;23859;50.672;7.164;2023-07-24T05:52:32;34048.06;;;-140.95;62.68
38054;BME280;23859;50.672;7.164;2023-07-24T05:54:59;33975.75;;;-140.95;62.86
38054;BME280;23859;50.672;7.164;2023-07-24T05:57:25;33945.63;;;-140.95;63.27
38054;BME280;23859;50.672;7.164;2023-07-24T05:59:51;33995.84;;;-140.95;58.52
38054;BME280;23859;50.672;7.164;2023-07-24T06:02:18;33969.72;;;-140.95;57.54
38054;BME280;23859;50.672;7.164;2023-07-24T06:04:44;34015.91;;;-140.95;59.97
38054;BME280;23859;50.672;7.164;2023-07-24T06:07:10;33989.81;;;-140.95;59.51
38054;BME280;23859;50.672;7.164;2023-07-24T06:09:36;34019.94;;;-140.95;60.04
38054;BME280;23859;50.672;7.164;2023-07-24T06:12:02;34046.03;;;-140.95;57.80
38054;BME280;23859;50.672;7.164;2023-07-24T06:14:28;34027.97;;;-140.95;58.03
38054;BME280;23859;50.672;7.164;2023-07-24T06:16:54;33937.59;;;-140.95;56.33
38054;BME280;23859;50.672;7.164;2023-07-24T06:19:20;33915.50;;;-140.95;55.80
38054;BME280;23859;50.672;7.164;2023-07-24T06:21:47;33762.88;;;-140.95;55.49
38054;BME280;23859;50.672;7.164;2023-07-24T06:24:13;33702.63;;;-140.95;54.70
38054;BME280;23859;50.672;7.164;2023-07-24T06:26:39;33690.59;;;-140.95;54.20
38054;BME280;23859;50.672;7.164;2023-07-24T06:29:06;33614.28;;;-140.95;52.02
38054;BME280;23859;50.672;7.164;2023-07-24T06:31:32;33570.09;;;-140.95;52.02
38054;BME280;23859;50.672;7.164;2023-07-24T06:33:58;33389.38;;;-140.95;51.23
38054;BME280;23859;50.672;7.164;2023-07-24T06:36:24;33349.22;;;-140.95;50.72
38054;BME280;23859;50.672;7.164;2023-07-24T06:38:50;33399.44;;;-140.95;52.28
38054;BME280;23859;50.672;7.164;2023-07-24T06:41:16;33333.16;;;-140.95;49.79
38054;BME280;23859;50.672;7.164;2023-07-24T06:43:43;33321.13;;;-140.95;51.47
38054;BME280;23859;50.672;7.164;2023-07-24T06:46:09;33272.94;;;-140.95;50.21
38054;BME280;23859;50.672;7.164;2023-07-24T06:48:35;33341.19;;;-140.95;52.00
38054;BME280;23859;50.672;7.164;2023-07-24T06:51:01;33399.44;;;-140.95;50.38
38054;BME280;23859;50.672;7.164;2023-07-24T06:53:27;33405.44;;;-140.95;50.99
38054;BME280;23859;50.672;7.164;2023-07-24T06:55:53;33529.94;;;-140.95;50.86
38054;BME280;23859;50.672;7.164;2023-07-24T06:58:19;33558.06;;;-140.95;51.97
38054;BME280;23859;50.672;7.164;2023-07-24T07:00:45;33602.25;;;-140.95;51.69
38054;BME280;23859;50.672;7.164;2023-07-24T07:03:11;33513.88;;;-140.95;51.87
38054;BME280;23859;50.672;7.164;2023-07-24T07:05:37;33588.19;;;-140.95;52.96
38054;BME280;23859;50.672;7.164;2023-07-24T07:08:03;33533.97;;;-140.95;51.05
38054;BME280;23859;50.672;7.164;2023-07-24T07:10:31;33443.59;;;-140.95;50.38
38054;BME280;23859;50.672;7.164;2023-07-24T07:12:57;33401.44;;;-140.95;51.43
38054;BME280;23859;50.672;7.164;2023-07-24T07:15:23;33425.53;;;-140.95;51.71
38054;BME280;23859;50.672;7.164;2023-07-24T07:17:52;33417.50;;;-140.95;51.56
38054;BME280;23859;50.672;7.164;2023-07-24T07:20:18;33393.41;;;-140.95;50.73
38054;BME280;23859;50.672;7.164;2023-07-24T07:22:45;33375.34;;;-140.95;50.57
38054;BME280;23859;50.672;7.164;2023-07-24T07:25:11;33345.22;;;-140.95;50.69
38054;BME280;23859;50.672;7.164;2023-07-24T07:27:37;33337.19;;;-140.95;51.01
38054;BME280;23859;50.672;7.164;2023-07-24T07:30:03;33381.34;;;-140.95;51.20
38054;BME280;23859;50.672;7.164;2023-07-24T07:32:30;33431.56;;;-140.95;52.54
38054;BME280;23859;50.672;7.164;2023-07-24T07:34:56;33451.63;;;-140.95;51.04
38054;BME280;23859;50.672;7.164;2023-07-24T07:37:22;33429.56;;;-140.95;50.17
38054;BME280;23859;50.672;7.164;2023-07-24T07:39:48;33453.66;;;-140.95;50.37
38054;BME280;23859;50.672;7.164;2023-07-24T07:42:14;33457.66;;;-140.95;50.83
38054;BME280;23859;50.672;7.164;2023-07-24T07:44:40;33449.63;;;-140.95;51.06
38054;BME280;23859;50.672;7.164;2023-07-24T07:47:06;33525.94;;;-140.95;51.96
38054;BME280;23859;50.672;7.164;2023-07-24T07:49:32;33602.25;;;-140.95;52.00
38054;BME280;23859;50.672;7.164;2023-07-24T07:51:58;33562.06;;;-140.95;51.56
38054;BME280;23859;50.672;7.164;2023-07-24T07:54:24;33554.03;;;-140.95;52.28
38054;BME280;23859;50.672;7.164;2023-07-24T07:56:50;33537.97;;;-140.95;52.21
38054;BME280;23859;50.672;7.164;2023-07-24T07:59:16;33417.50;;;-140.95;50.26
38054;BME280;23859;50.672;7.164;2023-07-24T08:01:42;33385.38;;;-140.95;48.95
38054;BME280;23859;50.672;7.164;2023-07-24T08:04:08;33246.81;;;-140.95;47.92
38054;BME280;23859;50.672;7.164;2023-07-24T08:06:34;33188.59;;;-140.95;47.02
38054;BME280;23859;50.672;7.164;2023-07-24T08:09:00;33220.72;;;-140.95;48.16
38054;BME280;23859;50.672;7.164;2023-07-24T08:11:27;33186.59;;;-140.95;46.16
38054;BME280;23859;50.672;7.164;2023-07-24T08:13:53;33112.31;;;-140.95;46.15
38054;BME280;23859;50.672;7.164;2023-07-24T08:16:19;33188.59;;;-140.95;46.79
38054;BME280;23859;50.672;7.164;2023-07-24T08:18:48;33204.66;;;-140.95;47.02
38054;BME280;23859;50.672;7.164;2023-07-24T08:21:14;33180.56;;;-140.95;46.15
38054;BME280;23859;50.672;7.164;2023-07-24T08:23:40;33256.88;;;-140.95;46.96
38054;BME280;23859;50.672;7.164;2023-07-24T08:26:07;33204.66;;;-140.95;47.92
38054;BME280;23859;50.672;7.164;2023-07-24T08:28:33;33202.66;;;-140.95;47.76
38054;BME280;23859;50.672;7.164;2023-07-24T08:31:02;33132.38;;;-140.95;46.90
38054;BME280;23859;50.672;7.164;2023-07-24T08:33:29;33003.88;;;-140.95;43.78
38054;BME280;23859;50.672;7.164;2023-07-24T08:36:06;32923.56;;;-140.95;44.71
38054;BME280;23859;50.672;7.164;2023-07-24T08:38:36;32642.50;;;-140.95;43.37
38054;BME280;23859;50.672;7.164;2023-07-24T08:41:12;32704.75;;;-140.95;43.32
38054;BME280;23859;50.672;7.164;2023-07-24T08:43:41;32678.66;;;-140.95;42.13
38054;BME280;23859;50.672;7.164;2023-07-24T08:46:08;32618.41;;;-140.95;43.48
38054;BME280;23859;50.672;7.164;2023-07-24T08:48:39;32578.25;;;-140.95;41.99
38054;BME280;23859;50.672;7.164;2023-07-24T08:51:08;32728.84;;;-140.95;43.46
38054;BME280;23859;50.672;7.164;2023-07-24T08:53:36;32865.34;;;-140.95;40.93
38054;BME280;23859;50.672;7.164;2023-07-24T08:56:07;32935.63;;;-140.95;42.75
38054;BME280;23859;50.672;7.164;2023-07-24T08:58:33;32923.56;;;-140.95;42.60
38054;BME280;23859;50.672;7.164;2023-07-24T09:01:00;32935.63;;;-140.95;43.05
38054;BME280;23859;50.672;7.164;2023-07-24T09:03:27;33048.06;;;-140.95;43.04
38054;BME280;23859;50.672;7.164;2023-07-24T09:05:54;33021.97;;;-140.95;43.99
38054;BME280;23859;50.672;7.164;2023-07-24T09:08:37;33180.56;;;-140.95;44.78
38054;BME280;23859;50.672;7.164;2023-07-24T09:11:04;33100.25;;;-140.95;44.19
38054;BME280;23859;50.672;7.164;2023-07-24T09:13:31;33072.16;;;-140.95;43.93
38054;BME280;23859;50.672;7.164;2023-07-24T09:15:58;33054.06;;;-140.95;44.06
38054;BME280;23859;50.672;7.164;2023-07-24T09:18:25;33068.13;;;-140.95;44.36
38054;BME280;23859;50.672;7.164;2023-07-24T09:20:51;33032.00;;;-140.95;43.13
38054;BME280;23859;50.672;7.164;2023-07-24T09:23:27;33052.06;;;-140.95;43.87
38054;BME280;23859;50.672;7.164;2023-07-24T09:25:53;33116.31;;;-140.95;43.81
38054;BME280;23859;50.672;7.164;2023-07-24T09:28:20;33084.19;;;-140.95;43.60
38054;BME280;23859;50.672;7.164;2023-07-24T09:30:57;32983.81;;;-140.95;43.06
38054;BME280;23859;50.672;7.164;2023-07-24T09:33:37;32959.72;;;-140.95;42.91
38054;BME280;23859;50.672;7.164;2023-07-24T09:36:06;32897.47;;;-140.95;43.24
38054;BME280;23859;50.672;7.164;2023-07-24T09:38:40;32871.38;;;-140.95;42.33
38054;BME280;23859;50.672;7.164;2023-07-24T09:41:07;32913.53;;;-140.95;42.62
38054;BME280;23859;50.672;7.164;2023-07-24T09:43:33;32911.53;;;-140.95;42.91
38054;BME280;23859;50.672;7.164;2023-07-24T09:46:04;33050.06;;;-140.95;43.17
38054;BME280;23859;50.672;7.164;2023-07-24T09:48:31;32981.81;;;-140.95;43.10
38054;BME280;23859;50.672;7.164;2023-07-24T09:50:59;32839.25;;;-140.95;42.58
38054;BME280;23859;50.672;7.164;2023-07-24T09:53:41;32771.00;;;-140.95;42.22
38054;BME280;23859;50.672;7.164;2023-07-24T09:56:10;32650.53;;;-140.95;41.47
38054;BME280;23859;50.672;7.164;2023-07-24T09:58:40;32606.38;;;-140.95;40.58
38054;BME280;23859;50.672;7.164;2023-07-24T10:01:10;32550.16;;;-140.95;40.21
38054;BME280;23859;50.672;7.164;2023-07-24T10:03:40;32606.38;;;-140.95;41.25
38054;BME280;23859;50.672;7.164;2023-07-24T10:06:08;32893.47;;;-140.95;41.61
38054;BME280;23859;50.672;7.164;2023-07-24T10:08:37;32686.69;;;-140.95;42.41
38054;BME280;23859;50.672;7.164;2023-07-24T10:11:04;32766.97;;;-140.95;42.33
38054;BME280;23859;50.672;7.164;2023-07-24T10:13:30;32718.78;;;-140.95;42.60
38054;BME280;23859;50.672;7.164;2023-07-24T10:15:57;32750.91;;;-140.95;40.94
38054;BME280;23859;50.672;7.164;2023-07-24T10:18:29;32678.66;;;-140.95;41.48
38054;BME280;23859;50.672;7.164;2023-07-24T10:21:06;32919.56;;;-140.95;41.58
38054;BME280;23859;50.672;7.164;2023-07-24T10:23:36;32752.94;;;-140.95;42.11
38054;BME280;23859;50.672;7.164;2023-07-24T10:26:06;32668.59;;;-140.95;40.40
38054;BME280;23859;50.672;7.164;2023-07-24T10:28:37;32501.97;;;-140.95;39.61
38054;BME280;23859;50.672;7.164;2023-07-24T10:31:20;32457.81;;;-140.95;38.13
38054;BME280;23859;50.672;7.164;2023-07-24T10:33:46;32293.22;;;-140.95;38.58
38054;BME280;23859;50.672;7.164;2023-07-24T10:36:12;32188.81;;;-140.95;37.86
38054;BME280;23859;50.672;7.164;2023-07-24T10:38:45;32156.72;;;-140.95;37.47
38054;BME280;23859;50.672;7.164;2023-07-24T10:41:12;32285.19;;;-140.95;37.49
38054;BME280;23859;50.672;7.164;2023-07-24T10:46:11;32291.19;;;-140.95;38.62
38054;BME280;23859;50.672;7.164;2023-07-24T10:48:45;32407.63;;;-140.95;37.45
38054;BME280;23859;50.672;7.164;2023-07-24T10:51:12;32381.53;;;-140.95;37.75
38054;BME280;23859;50.672;7.164;2023-07-24T10:53:44;32421.69;;;-140.95;37.44
38054;BME280;23859;50.672;7.164;2023-07-24T10:56:10;32277.16;;;-140.95;37.07
38054;BME280;23859;50.672;7.164;2023-07-24T10:58:36;32397.59;;;-140.95;36.91
38054;BME280;23859;50.672;7.164;2023-07-24T11:01:05;32473.88;;;-140.95;37.98
38054;BME280;23859;50.672;7.164;2023-07-24T11:03:31;32357.44;;;-140.95;37.85
38054;BME280;23859;50.672;7.164;2023-07-24T11:05:58;32255.06;;;-140.95;36.16
38054;BME280;23859;50.672;7.164;2023-07-24T11:08:25;32261.09;;;-140.95;36.55
38054;BME280;23859;50.672;7.164;2023-07-24T11:10:53;32257.06;;;-140.95;35.68
38054;BME280;23859;50.672;7.164;2023-07-24T11:13:21;32138.66;;;-140.95;35.19
38054;BME280;23859;50.672;7.164;2023-07-24T11:15:48;32076.41;;;-140.95;35.89
38054;BME280;23859;50.672;7.164;2023-07-24T11:18:15;32114.56;;;-140.95;35.34
38054;BME280;23859;50.672;7.164;2023-07-24T11:20:52;31518.44;;;-140.95;34.43
38054;BME280;23859;50.672;7.164;2023-07-24T11:23:19;30912.38;;;-140.95;31.86
38054;BME280;23859;50.672;7.164;2023-07-24T11:25:46;31189.31;;;-140.95;31.31
38054;BME280;23859;50.672;7.164;2023-07-24T11:28:13;31353.88;;;-140.95;31.39
38054;BME280;23859;50.672;7.164;2023-07-24T11:30:40;31137.13;;;-140.95;30.75
38054;BME280;23859;50.672;7.164;2023-07-24T11:33:09;30910.38;;;-140.95;29.66
38054;BME280;23859;50.672;7.164;2023-07-24T11:35:36;30468.94;;;-140.95;29.10
38054;BME280;23859;50.672;7.164;2023-07-24T11:38:04;29495.91;;;-140.95;26.95
38054;BME280;23859;50.672;7.164;2023-07-24T11:40:36;28477.03;;;-140.95;24.00
38054;BME280;23859;50.672;7.164;2023-07-24T11:43:03;29295.34;;;-140.95;24.69
38054;BME280;23859;50.672;7.164;2023-07-24T11:45:30;30984.63;;;-140.95;28.16
38054;BME280;23859;50.672;7.164;2023-07-24T11:47:57;31223.41;;;-140.95;30.51
38054;BME280;23859;50.672;7.164;2023-07-24T11:50:24;31341.81;;;-140.95;30.55
38054;BME280;23859;50.672;7.164;2023-07-24T11:52:52;31028.75;;;-140.95;29.46
38054;BME280;23859;50.672;7.164;2023-07-24T11:55:31;31213.38;;;-140.95;30.50
38054;BME280;23859;50.672;7.164;2023-07-24T11:57:59;31448.19;;;-140.95;31.80
38054;BME280;23859;50.672;7.164;2023-07-24T12:00:26;31349.84;;;-140.95;31.68
38054;BME280;23859;50.672;7.164;2023-07-24T12:02:52;31273.59;;;-140.95;31.79
38054;BME280;23859;50.672;7.164;2023-07-24T12:05:18;30988.63;;;-140.95;30.68
38054;BME280;23859;50.672;7.164;2023-07-24T12:07:45;30994.66;;;-140.95;29.78
38054;BME280;23859;50.672;7.164;2023-07-24T12:10:13;31207.38;;;-140.95;30.54
38054;BME280;23859;50.672;7.164;2023-07-24T12:12:46;31552.56;;;-140.95;31.82
38054;BME280;23859;50.672;7.164;2023-07-24T12:15:13;31787.38;;;-140.95;33.26
38054;BME280;23859;50.672;7.164;2023-07-24T12:17:40;32022.22;;;-140.95;34.58
38054;BME280;23859;50.672;7.164;2023-07-24T12:20:08;32170.75;;;-140.95;35.74
38054;BME280;23859;50.672;7.164;2023-07-24T12:22:37;32042.28;;;-140.95;35.16
38054;BME280;23859;50.672;7.164;2023-07-24T12:25:05;31851.59;;;-140.95;36.32
38054;BME280;23859;50.672;7.164;2023-07-24T12:27:31;31723.16;;;-140.95;35.47
38054;BME280;23859;50.672;7.164;2023-07-24T12:29:59;31735.19;;;-140.95;34.72
38054;BME280;23859;50.672;7.164;2023-07-24T12:32:26;31654.91;;;-140.95;34.59
38054;BME280;23859;50.672;7.164;2023-07-24T12:34:53;31731.19;;;-140.95;34.57
38054;BME280;23859;50.672;7.164;2023-07-24T12:37:19;31863.66;;;-140.95;34.62
38054;BME280;23859;50.672;7.164;2023-07-24T12:39:47;32349.41;;;-140.95;35.13
38054;BME280;23859;50.672;7.164;2023-07-24T12:42:13;32052.34;;;-140.95;35.57